Paynesville, West Virginia
Current Conditions -  °F | °C
As of 10:15 PM on Wednesday 22 Oct 2014 (Local Time) from KJFZ Reporting Station
Haze Haze  
Wind Chill: 42°   Ceiling: 300
Heat Index: 45°   Visibility: 1.2mi
Dew Point: 43°   Wind: 5mph
Humidity: 95%   Direction: 320°NW
Pressure: 30.19"   Gusts: NA
Location:  37.33°N, 81.89°W
Report Text: KJFZ 230215Z AUTO 32004KT 1 1/4SM BR OVC003 07/06 A3019 RMK AO2 T00700062
Loading
Personal Weather Stations






























Interactive Weather Map
Tropical Storm Tracking
New forecast layout! Learn more

10-Day Weather Forecast

Advertisements
Track Severe Weather on mobile